sensor_id;sensor_type;location;lat;lon;timestamp;pressure;altitude;pressure_sealevel;temperature;humidity
70521;BME280;58442;52.716;23.560;2023-08-06T00:01:03;100400.02;;;21.45;78.85
70521;BME280;58442;52.716;23.560;2023-08-06T00:03:10;100406.00;;;21.43;78.84
70521;BME280;58442;52.716;23.560;2023-08-06T00:05:11;100394.60;;;21.41;78.83
70521;BME280;58442;52.716;23.560;2023-08-06T00:07:13;100402.09;;;21.41;78.79
70521;BME280;58442;52.716;23.560;2023-08-06T00:09:18;100399.76;;;21.39;78.77
70521;BME280;58442;52.716;23.560;2023-08-06T00:11:19;100404.51;;;21.39;78.73
70521;BME280;58442;52.716;23.560;2023-08-06T00:13:21;100402.97;;;21.38;78.69
70521;BME280;58442;52.716;23.560;2023-08-06T00:15:22;100399.48;;;21.34;78.72
70521;BME280;58442;52.716;23.560;2023-08-06T00:17:33;100397.16;;;21.32;78.73
70521;BME280;58442;52.716;23.560;2023-08-06T00:19:35;100397.59;;;21.30;78.74
70521;BME280;58442;52.716;23.560;2023-08-06T00:21:36;100392.90;;;21.27;78.77
70521;BME280;58442;52.716;23.560;2023-08-06T00:23:38;100406.73;;;21.27;78.79
70521;BME280;58442;52.716;23.560;2023-08-06T00:25:47;100396.50;;;21.24;78.79
70521;BME280;58442;52.716;23.560;2023-08-06T00:27:49;100394.61;;;21.21;78.85
70521;BME280;58442;52.716;23.560;2023-08-06T00:29:50;100391.91;;;21.18;78.90
70521;BME280;58442;52.716;23.560;2023-08-06T00:31:51;100381.73;;;21.15;78.97
70521;BME280;58442;52.716;23.560;2023-08-06T00:34:02;100384.89;;;21.13;79.01
70521;BME280;58442;52.716;23.560;2023-08-06T00:36:04;100382.13;;;21.13;78.98
70521;BME280;58442;52.716;23.560;2023-08-06T00:38:05;100382.56;;;21.12;78.99
70521;BME280;58442;52.716;23.560;2023-08-06T00:40:07;100382.23;;;21.10;79.02
70521;BME280;58442;52.716;23.560;2023-08-06T00:42:17;100386.98;;;21.09;79.04
70521;BME280;58442;52.716;23.560;2023-08-06T00:44:23;100385.05;;;21.06;79.05
70521;BME280;58442;52.716;23.560;2023-08-06T00:46:24;100379.18;;;21.04;79.08
70521;BME280;58442;52.716;23.560;2023-08-06T00:48:26;100378.84;;;21.02;79.13
70521;BME280;58442;52.716;23.560;2023-08-06T00:50:32;100378.50;;;21.00;79.16
70521;BME280;58442;52.716;23.560;2023-08-06T00:52:33;100382.44;;;20.99;79.17
70521;BME280;58442;52.716;23.560;2023-08-06T00:54:35;100371.83;;;20.97;79.15
70521;BME280;58442;52.716;23.560;2023-08-06T00:56:37;100372.25;;;20.96;79.24
70521;BME280;58442;52.716;23.560;2023-08-06T00:58:47;100374.67;;;20.94;79.29
70521;BME280;58442;52.716;23.560;2023-08-06T01:00:48;100377.07;;;20.92;79.37
70521;BME280;58442;52.716;23.560;2023-08-06T01:02:49;100374.30;;;20.92;79.40
70521;BME280;58442;52.716;23.560;2023-08-06T01:04:51;100370.34;;;20.93;79.32
70521;BME280;58442;52.716;23.560;2023-08-06T01:16:26;100351.52;;;20.88;79.35
70521;BME280;58442;52.716;23.560;2023-08-06T01:18:28;100344.44;;;20.87;79.38
70521;BME280;58442;52.716;23.560;2023-08-06T01:20:30;100342.86;;;20.86;79.38
70521;BME280;58442;52.716;23.560;2023-08-06T01:22:32;100346.83;;;20.85;79.37
70521;BME280;58442;52.716;23.560;2023-08-06T01:24:46;100349.68;;;20.81;79.45
70521;BME280;58442;52.716;23.560;2023-08-06T01:29:10;100337.48;;;20.79;79.48
70521;BME280;58442;52.716;23.560;2023-08-06T01:31:27;100324.88;;;20.78;79.51
70521;BME280;58442;52.716;23.560;2023-08-06T01:33:25;100326.87;;;20.77;79.53
70521;BME280;58442;52.716;23.560;2023-08-06T01:35:29;100330.06;;;20.75;79.59
70521;BME280;58442;52.716;23.560;2023-08-06T01:37:31;100321.00;;;20.75;79.66
70521;BME280;58442;52.716;23.560;2023-08-06T01:39:35;100324.54;;;20.75;79.66
70521;BME280;58442;52.716;23.560;2023-08-06T01:41:37;100316.68;;;20.74;79.62
70521;BME280;58442;52.716;23.560;2023-08-06T01:43:41;100315.47;;;20.75;79.63
70521;BME280;58442;52.716;23.560;2023-08-06T01:45:42;100311.93;;;20.74;79.59
70521;BME280;58442;52.716;23.560;2023-08-06T01:47:43;100321.78;;;20.75;79.51
70521;BME280;58442;52.716;23.560;2023-08-06T01:49:45;100322.98;;;20.74;79.51
70521;BME280;58442;52.716;23.560;2023-08-06T01:51:55;100316.31;;;20.72;79.50
70521;BME280;58442;52.716;23.560;2023-08-06T01:53:57;100314.76;;;20.71;79.52
70521;BME280;58442;52.716;23.560;2023-08-06T01:55:58;100312.43;;;20.69;79.57
70521;BME280;58442;52.716;23.560;2023-08-06T01:57:59;100308.13;;;20.68;79.57
70521;BME280;58442;52.716;23.560;2023-08-06T02:00:11;100313.64;;;20.68;79.58
70521;BME280;58442;52.716;23.560;2023-08-06T02:02:12;100304.24;;;20.66;79.58
70521;BME280;58442;52.716;23.560;2023-08-06T02:04:14;100305.42;;;20.65;79.68
70521;BME280;58442;52.716;23.560;2023-08-06T02:06:15;100308.19;;;20.65;79.71
70521;BME280;58442;52.716;23.560;2023-08-06T02:08:25;100290.84;;;20.64;79.69
70521;BME280;58442;52.716;23.560;2023-08-06T02:10:28;100298.34;;;20.64;79.68
70521;BME280;58442;52.716;23.560;2023-08-06T02:12:29;100297.56;;;20.63;79.67
70521;BME280;58442;52.716;23.560;2023-08-06T02:14:30;100299.55;;;20.63;79.64
70521;BME280;58442;52.716;23.560;2023-08-06T02:16:40;100284.98;;;20.62;79.65
70521;BME280;58442;52.716;23.560;2023-08-06T02:18:41;100288.52;;;20.63;79.64
70521;BME280;58442;52.716;23.560;2023-08-06T02:20:43;100291.27;;;20.63;79.63
70521;BME280;58442;52.716;23.560;2023-08-06T02:22:44;100295.24;;;20.62;79.57
70521;BME280;58442;52.716;23.560;2023-08-06T02:24:54;100278.34;;;20.60;79.73
70521;BME280;58442;52.716;23.560;2023-08-06T02:26:55;100287.02;;;20.58;79.67
70521;BME280;58442;52.716;23.560;2023-08-06T02:28:57;100289.78;;;20.58;79.72
70521;BME280;58442;52.716;23.560;2023-08-06T02:30:58;100288.23;;;20.57;79.74
70521;BME280;58442;52.716;23.560;2023-08-06T02:33:09;100277.17;;;20.57;79.77
70521;BME280;58442;52.716;23.560;2023-08-06T02:35:10;100266.13;;;20.57;79.72
70521;BME280;58442;52.716;23.560;2023-08-06T02:37:11;100266.13;;;20.57;79.68
70521;BME280;58442;52.716;23.560;2023-08-06T02:39:13;100266.56;;;20.56;79.69
70521;BME280;58442;52.716;23.560;2023-08-06T02:41:24;100258.72;;;20.54;79.71
70521;BME280;58442;52.716;23.560;2023-08-06T02:43:25;100255.96;;;20.54;79.71
70521;BME280;58442;52.716;23.560;2023-08-06T02:45:26;100265.02;;;20.55;79.75
70521;BME280;58442;52.716;23.560;2023-08-06T02:47:28;100253.98;;;20.55;79.75
70521;BME280;58442;52.716;23.560;2023-08-06T02:49:38;100253.20;;;20.54;79.78
70521;BME280;58442;52.716;23.560;2023-08-06T02:51:40;100263.90;;;20.52;79.84
70521;BME280;58442;52.716;23.560;2023-08-06T02:53:41;100250.09;;;20.52;79.94
70521;BME280;58442;52.716;23.560;2023-08-06T02:55:47;100249.29;;;20.52;79.96
70521;BME280;58442;52.716;23.560;2023-08-06T02:57:53;100252.41;;;20.54;79.93
70521;BME280;58442;52.716;23.560;2023-08-06T02:59:54;100247.67;;;20.54;79.96
70521;BME280;58442;52.716;23.560;2023-08-06T03:01:56;100252.41;;;20.54;79.93
70521;BME280;58442;52.716;23.560;2023-08-06T03:03:57;100250.43;;;20.54;79.92
70521;BME280;58442;52.716;23.560;2023-08-06T03:06:08;100239.39;;;20.54;79.93
70521;BME280;58442;52.716;23.560;2023-08-06T03:08:09;100242.16;;;20.54;79.90
70521;BME280;58442;52.716;23.560;2023-08-06T03:10:10;100238.18;;;20.55;79.86
70521;BME280;58442;52.716;23.560;2023-08-06T03:12:12;100240.95;;;20.55;79.85
70521;BME280;58442;52.716;23.560;2023-08-06T03:14:23;100239.73;;;20.56;79.93
70521;BME280;58442;52.716;23.560;2023-08-06T03:16:24;100236.63;;;20.54;79.96
70521;BME280;58442;52.716;23.560;2023-08-06T03:18:25;100239.39;;;20.54;80.01
70521;BME280;58442;52.716;23.560;2023-08-06T03:20:27;100227.57;;;20.54;80.04
70521;BME280;58442;52.716;23.560;2023-08-06T03:22:37;100226.36;;;20.55;80.08
70521;BME280;58442;52.716;23.560;2023-08-06T03:24:39;100221.95;;;20.57;80.05
70521;BME280;58442;52.716;23.560;2023-08-06T03:26:40;100219.20;;;20.57;80.00
70521;BME280;58442;52.716;23.560;2023-08-06T03:28:42;100226.27;;;20.58;79.99
70521;BME280;58442;52.716;23.560;2023-08-06T03:31:04;100219.20;;;20.57;80.04
70521;BME280;58442;52.716;23.560;2023-08-06T03:33:13;100219.20;;;20.57;80.09
70521;BME280;58442;52.716;23.560;2023-08-06T03:35:15;100227.47;;;20.57;80.12
70521;BME280;58442;52.716;23.560;2023-08-06T03:37:16;100220.74;;;20.58;80.19
70521;BME280;58442;52.716;23.560;2023-08-06T03:39:18;100217.65;;;20.56;80.13
70521;BME280;58442;52.716;23.560;2023-08-06T03:41:28;100219.20;;;20.57;80.30
70521;BME280;58442;52.716;23.560;2023-08-06T03:43:29;100212.46;;;20.58;80.33
70521;BME280;58442;52.716;23.560;2023-08-06T03:45:31;100214.38;;;20.61;80.37
70521;BME280;58442;52.716;23.560;2023-08-06T03:47:32;100210.41;;;20.62;80.35
70521;BME280;58442;52.716;23.560;2023-08-06T03:49:43;100201.69;;;20.64;80.32
70521;BME280;58442;52.716;23.560;2023-08-06T03:51:44;100196.95;;;20.64;80.34
70521;BME280;58442;52.716;23.560;2023-08-06T03:53:46;100199.70;;;20.64;80.39
70521;BME280;58442;52.716;23.560;2023-08-06T03:55:48;100188.26;;;20.66;80.41
70521;BME280;58442;52.716;23.560;2023-08-06T03:57:57;100185.49;;;20.66;80.40
70521;BME280;58442;52.716;23.560;2023-08-06T03:59:59;100185.05;;;20.67;80.43
70521;BME280;58442;52.716;23.560;2023-08-06T04:02:00;100189.80;;;20.67;80.44
70521;BME280;58442;52.716;23.560;2023-08-06T04:04:02;100186.60;;;20.68;80.46
70521;BME280;58442;52.716;23.560;2023-08-06T04:06:12;100178.32;;;20.68;80.46
70521;BME280;58442;52.716;23.560;2023-08-06T04:08:13;100185.39;;;20.69;80.51
70521;BME280;58442;52.716;23.560;2023-08-06T04:10:15;100173.14;;;20.70;80.76
70521;BME280;58442;52.716;23.560;2023-08-06T04:12:16;100171.92;;;20.71;80.57
70521;BME280;58442;52.716;23.560;2023-08-06T04:14:28;100166.77;;;20.73;80.57
70521;BME280;58442;52.716;23.560;2023-08-06T04:16:29;100158.81;;;20.75;80.58
70521;BME280;58442;52.716;23.560;2023-08-06T04:18:30;100164.79;;;20.74;80.61
70521;BME280;58442;52.716;23.560;2023-08-06T04:20:32;100157.61;;;20.76;80.64
70521;BME280;58442;52.716;23.560;2023-08-06T04:22:42;100152.08;;;20.76;80.65
70521;BME280;58442;52.716;23.560;2023-08-06T04:24:43;100150.88;;;20.78;80.69
70521;BME280;58442;52.716;23.560;2023-08-06T04:26:45;100149.25;;;20.80;80.67
70521;BME280;58442;52.716;23.560;2023-08-06T04:28:46;100147.59;;;20.83;80.66
70521;BME280;58442;52.716;23.560;2023-08-06T04:30:56;100143.63;;;20.84;80.70
70521;BME280;58442;52.716;23.560;2023-08-06T04:32:58;100141.20;;;20.86;80.68
70521;BME280;58442;52.716;23.560;2023-08-06T04:34:59;100150.29;;;20.86;80.67
70521;BME280;58442;52.716;23.560;2023-08-06T04:37:01;100138.80;;;20.88;80.66
70521;BME280;58442;52.716;23.560;2023-08-06T04:39:11;100136.38;;;20.90;80.61
70521;BME280;58442;52.716;23.560;2023-08-06T04:41:13;100137.92;;;20.91;80.62
70521;BME280;58442;52.716;23.560;2023-08-06T04:43:14;100143.78;;;20.93;80.69
70521;BME280;58442;52.716;23.560;2023-08-06T04:45:16;100137.85;;;20.94;80.78
70521;BME280;58442;52.716;23.560;2023-08-06T04:47:26;100123.15;;;20.97;80.82
70521;BME280;58442;52.716;23.560;2023-08-06T04:49:27;100125.07;;;21.00;80.83
70521;BME280;58442;52.716;23.560;2023-08-06T04:51:29;100121.09;;;21.01;80.78
70521;BME280;58442;52.716;23.560;2023-08-06T04:53:30;100115.46;;;21.05;80.77
70521;BME280;58442;52.716;23.560;2023-08-06T04:55:41;100118.59;;;21.07;80.78
70521;BME280;58442;52.716;23.560;2023-08-06T04:57:42;100116.93;;;21.10;80.77
70521;BME280;58442;52.716;23.560;2023-08-06T04:59:44;100114.05;;;21.13;80.80
70521;BME280;58442;52.716;23.560;2023-08-06T05:01:45;100123.82;;;21.18;80.77
70521;BME280;58442;52.716;23.560;2023-08-06T05:03:55;100117.84;;;21.19;80.73
70521;BME280;58442;52.716;23.560;2023-08-06T05:05:57;100108.70;;;21.22;80.75
70521;BME280;58442;52.716;23.560;2023-08-06T05:07:58;100102.29;;;21.25;80.72
70521;BME280;58442;52.716;23.560;2023-08-06T05:09:59;100105.41;;;21.27;80.72
70521;BME280;58442;52.716;23.560;2023-08-06T05:12:10;100096.27;;;21.30;80.81
70521;BME280;58442;52.716;23.560;2023-08-06T05:14:11;100095.38;;;21.34;80.85
70521;BME280;58442;52.716;23.560;2023-08-06T05:16:13;100086.23;;;21.37;80.79
70521;BME280;58442;52.716;23.560;2023-08-06T05:18:14;100082.25;;;21.38;80.77
70521;BME280;58442;52.716;23.560;2023-08-06T05:20:25;100071.11;;;21.41;80.82
70521;BME280;58442;52.716;23.560;2023-08-06T05:22:26;100069.45;;;21.44;80.82
70521;BME280;58442;52.716;23.560;2023-08-06T05:24:27;100066.15;;;21.49;80.76
70521;BME280;58442;52.716;23.560;2023-08-06T05:26:29;100069.24;;;21.51;80.72
70521;BME280;58442;52.716;23.560;2023-08-06T05:28:39;100066.81;;;21.53;80.71
70521;BME280;58442;52.716;23.560;2023-08-06T05:30:42;100078.55;;;21.57;80.75
70521;BME280;58442;52.716;23.560;2023-08-06T05:32:43;100066.61;;;21.60;80.86
70521;BME280;58442;52.716;23.560;2023-08-06T05:34:45;100074.37;;;21.65;80.71
70521;BME280;58442;52.716;23.560;2023-08-06T05:36:54;100064.76;;;21.70;80.68
70521;BME280;58442;52.716;23.560;2023-08-06T05:38:56;100059.11;;;21.73;80.64
70521;BME280;58442;52.716;23.560;2023-08-06T05:40:57;100061.01;;;21.76;80.61
70521;BME280;58442;52.716;23.560;2023-08-06T05:42:58;100057.35;;;21.79;80.58
70521;BME280;58442;52.716;23.560;2023-08-06T05:45:09;100058.03;;;21.83;80.54
70521;BME280;58442;52.716;23.560;2023-08-06T05:47:11;100051.60;;;21.87;80.52
70521;BME280;58442;52.716;23.560;2023-08-06T05:49:12;100045.62;;;21.88;80.49
70521;BME280;58442;52.716;23.560;2023-08-06T05:51:14;100041.63;;;21.89;80.51
70521;BME280;58442;52.716;23.560;2023-08-06T05:53:24;100038.01;;;21.92;80.54
70521;BME280;58442;52.716;23.560;2023-08-06T05:55:25;100047.30;;;21.98;80.56
70521;BME280;58442;52.716;23.560;2023-08-06T05:57:26;100043.19;;;22.03;80.50
70521;BME280;58442;52.716;23.560;2023-08-06T05:59:28;100033.56;;;22.07;80.47
70521;BME280;58442;52.716;23.560;2023-08-06T06:01:38;100032.60;;;22.14;80.43
70521;BME280;58442;52.716;23.560;2023-08-06T06:03:40;100030.05;;;22.20;80.40
70521;BME280;58442;52.716;23.560;2023-08-06T06:05:41;100023.84;;;22.28;80.27
70521;BME280;58442;52.716;23.560;2023-08-06T06:07:43;100016.21;;;22.32;80.15
70521;BME280;58442;52.716;23.560;2023-08-06T06:09:53;100021.52;;;22.39;80.05
70521;BME280;58442;52.716;23.560;2023-08-06T06:11:54;100020.05;;;22.48;79.90
70521;BME280;58442;52.716;23.560;2023-08-06T06:13:56;100020.27;;;22.53;79.78
70521;BME280;58442;52.716;23.560;2023-08-06T06:15:57;100018.59;;;22.56;79.69
70521;BME280;58442;52.716;23.560;2023-08-06T06:18:08;100010.94;;;22.60;79.63
70521;BME280;58442;52.716;23.560;2023-08-06T06:20:10;100015.92;;;22.65;79.57
70521;BME280;58442;52.716;23.560;2023-08-06T06:22:11;100015.34;;;22.70;79.51
70521;BME280;58442;52.716;23.560;2023-08-06T06:24:12;100011.89;;;22.79;79.41
70521;BME280;58442;52.716;23.560;2023-08-06T06:26:22;100013.64;;;22.85;79.36
70521;BME280;58442;52.716;23.560;2023-08-06T06:28:24;100007.21;;;22.88;79.17
70521;BME280;58442;52.716;23.560;2023-08-06T06:30:25;100001.54;;;22.92;79.13
70521;BME280;58442;52.716;23.560;2023-08-06T06:32:26;100002.19;;;22.96;79.08
70521;BME280;58442;52.716;23.560;2023-08-06T06:34:37;100005.48;;;23.04;79.01
70521;BME280;58442;52.716;23.560;2023-08-06T06:36:38;100006.60;;;23.06;78.94
70521;BME280;58442;52.716;23.560;2023-08-06T06:38:40;100002.91;;;23.09;78.90
70521;BME280;58442;52.716;23.560;2023-08-06T06:40:42;100007.89;;;23.14;78.87
70521;BME280;58442;52.716;23.560;2023-08-06T06:42:52;99991.30;;;23.24;78.79
70521;BME280;58442;52.716;23.560;2023-08-06T06:44:53;99988.27;;;23.31;78.66
70521;BME280;58442;52.716;23.560;2023-08-06T06:46:54;99996.31;;;23.38;78.51
70521;BME280;58442;52.716;23.560;2023-08-06T06:48:56;99987.27;;;23.46;78.42
70521;BME280;58442;52.716;23.560;2023-08-06T06:51:06;99990.42;;;23.58;78.21
70521;BME280;58442;52.716;23.560;2023-08-06T06:53:08;99985.28;;;23.69;77.99
70521;BME280;58442;52.716;23.560;2023-08-06T06:55:09;99981.61;;;23.81;77.68
70521;BME280;58442;52.716;23.560;2023-08-06T06:57:11;99985.05;;;23.94;77.40
70521;BME280;58442;52.716;23.560;2023-08-06T06:59:21;99977.85;;;24.06;77.17
70521;BME280;58442;52.716;23.560;2023-08-06T07:01:22;99980.04;;;24.20;76.78
70521;BME280;58442;52.716;23.560;2023-08-06T07:03:24;99987.95;;;24.31;76.52
70521;BME280;58442;52.716;23.560;2023-08-06T07:05:25;99979.05;;;24.45;76.27
70521;BME280;58442;52.716;23.560;2023-08-06T07:07:36;99976.57;;;24.56;75.98
70521;BME280;58442;52.716;23.560;2023-08-06T07:09:38;99981.82;;;24.64;75.80
70521;BME280;58442;52.716;23.560;2023-08-06T07:11:40;99969.20;;;24.72;75.63
70521;BME280;58442;52.716;23.560;2023-08-06T07:13:44;99972.73;;;24.81;75.42
70521;BME280;58442;52.716;23.560;2023-08-06T07:15:50;99971.64;;;24.88;75.26
70521;BME280;58442;52.716;23.560;2023-08-06T07:17:52;99960.51;;;24.97;74.98
70521;BME280;58442;52.716;23.560;2023-08-06T07:19:53;99962.23;;;25.04;74.78
70521;BME280;58442;52.716;23.560;2023-08-06T07:22:41;99973.18;;;25.17;74.50
70521;BME280;58442;52.716;23.560;2023-08-06T07:24:42;99963.74;;;25.23;74.25
70521;BME280;58442;52.716;23.560;2023-08-06T07:26:43;99969.75;;;25.31;73.94
70521;BME280;58442;52.716;23.560;2023-08-06T07:28:45;99960.16;;;25.41;73.74
70521;BME280;58442;52.716;23.560;2023-08-06T07:30:47;99964.77;;;25.53;73.46
70521;BME280;58442;52.716;23.560;2023-08-06T07:32:48;99959.45;;;25.64;73.16
70521;BME280;58442;52.716;23.560;2023-08-06T07:34:50;99953.41;;;25.75;72.88
70521;BME280;58442;52.716;23.560;2023-08-06T07:37:00;99964.02;;;25.86;72.46
70521;BME280;58442;52.716;23.560;2023-08-06T07:39:01;99955.16;;;25.97;72.13
70521;BME280;58442;52.716;23.560;2023-08-06T07:41:05;99955.87;;;26.06;71.90
70521;BME280;58442;52.716;23.560;2023-08-06T07:43:06;99958.62;;;26.15;71.74
70521;BME280;58442;52.716;23.560;2023-08-06T07:45:09;99955.77;;;26.25;71.50
70521;BME280;58442;52.716;23.560;2023-08-06T07:47:10;99968.09;;;26.33;71.14
70521;BME280;58442;52.716;23.560;2023-08-06T07:49:11;99960.00;;;26.44;70.82
70521;BME280;58442;52.716;23.560;2023-08-06T07:51:20;99950.80;;;26.53;70.61
70521;BME280;58442;52.716;23.560;2023-08-06T07:53:22;99950.43;;;26.60;70.48
70521;BME280;58442;52.716;23.560;2023-08-06T07:55:24;99943.12;;;26.62;70.40
70521;BME280;58442;52.716;23.560;2023-08-06T07:57:26;99942.17;;;26.65;70.31
70521;BME280;58442;52.716;23.560;2023-08-06T07:59:35;99943.82;;;26.72;70.27
70521;BME280;58442;52.716;23.560;2023-08-06T08:01:36;99944.22;;;26.80;70.14
70521;BME280;58442;52.716;23.560;2023-08-06T08:03:37;99935.76;;;26.89;69.89
70521;BME280;58442;52.716;23.560;2023-08-06T08:05:39;99942.98;;;26.95;69.76
70521;BME280;58442;52.716;23.560;2023-08-06T08:07:49;99940.58;;;27.03;69.59
70521;BME280;58442;52.716;23.560;2023-08-06T08:09:51;99936.77;;;27.15;69.30
70521;BME280;58442;52.716;23.560;2023-08-06T08:11:52;99930.62;;;27.26;68.85
70521;BME280;58442;52.716;23.560;2023-08-06T08:13:53;99929.24;;;27.36;68.57
70521;BME280;58442;52.716;23.560;2023-08-06T08:16:04;99928.09;;;27.43;68.34
70521;BME280;58442;52.716;23.560;2023-08-06T08:18:05;99931.83;;;27.54;67.88
70521;BME280;58442;52.716;23.560;2023-08-06T08:20:07;99934.62;;;27.69;67.47
70521;BME280;58442;52.716;23.560;2023-08-06T08:22:09;99930.52;;;27.85;66.94
70521;BME280;58442;52.716;23.560;2023-08-06T08:24:19;99935.87;;;28.03;66.34
70521;BME280;58442;52.716;23.560;2023-08-06T08:26:20;99925.80;;;28.12;65.93
70521;BME280;58442;52.716;23.560;2023-08-06T08:28:22;99919.80;;;28.19;65.83
70521;BME280;58442;52.716;23.560;2023-08-06T08:30:23;99925.46;;;28.24;65.73
70521;BME280;58442;52.716;23.560;2023-08-06T08:32:33;99920.81;;;28.36;65.39
70521;BME280;58442;52.716;23.560;2023-08-06T08:34:34;99916.40;;;28.50;64.82
70521;BME280;58442;52.716;23.560;2023-08-06T08:36:36;99904.09;;;28.62;64.35
70521;BME280;58442;52.716;23.560;2023-08-06T08:38:38;99923.77;;;28.73;63.82
70521;BME280;58442;52.716;23.560;2023-08-06T08:40:51;99913.96;;;28.83;63.30
70521;BME280;58442;52.716;23.560;2023-08-06T08:42:54;99920.45;;;28.95;62.85
70521;BME280;58442;52.716;23.560;2023-08-06T08:44:57;99913.19;;;29.09;62.38
70521;BME280;58442;52.716;23.560;2023-08-06T08:46:59;99903.89;;;29.23;62.06
70521;BME280;58442;52.716;23.560;2023-08-06T08:49:02;99902.73;;;29.35;61.73
70521;BME280;58442;52.716;23.560;2023-08-06T08:51:04;99908.67;;;29.49;61.30
70521;BME280;58442;52.716;23.560;2023-08-06T08:53:08;99907.26;;;29.59;61.11
70521;BME280;58442;52.716;23.560;2023-08-06T08:55:12;99914.19;;;29.69;60.88
70521;BME280;58442;52.716;23.560;2023-08-06T08:57:17;99919.32;;;29.76;60.51
70521;BME280;58442;52.716;23.560;2023-08-06T08:59:19;99910.45;;;29.83;60.09
70521;BME280;58442;52.716;23.560;2023-08-06T09:01:22;99913.83;;;29.93;59.62
70521;BME280;58442;52.716;23.560;2023-08-06T09:03:23;99902.66;;;30.04;59.36
70521;BME280;58442;52.716;23.560;2023-08-06T09:05:32;99907.08;;;30.16;59.11
70521;BME280;58442;52.716;23.560;2023-08-06T09:07:41;99901.24;;;30.26;58.63
70521;BME280;58442;52.716;23.560;2023-08-06T09:09:48;99891.87;;;30.34;58.53
70521;BME280;58442;52.716;23.560;2023-08-06T09:11:50;99892.39;;;30.44;58.25
70521;BME280;58442;52.716;23.560;2023-08-06T09:13:54;99892.15;;;30.53;58.06
70521;BME280;58442;52.716;23.560;2023-08-06T09:15:56;99874.06;;;30.60;57.66
70521;BME280;58442;52.716;23.560;2023-08-06T09:17:57;99882.49;;;30.65;57.29
70521;BME280;58442;52.716;23.560;2023-08-06T09:19:59;99869.80;;;30.75;56.97
70521;BME280;58442;52.716;23.560;2023-08-06T09:22:03;99875.67;;;30.83;56.76
70521;BME280;58442;52.716;23.560;2023-08-06T09:24:12;99875.69;;;30.89;56.51
70521;BME280;58442;52.716;23.560;2023-08-06T09:26:13;99864.95;;;30.98;56.21
70521;BME280;58442;52.716;23.560;2023-08-06T09:28:15;99867.02;;;31.09;55.97
70521;BME280;58442;52.716;23.560;2023-08-06T09:32:48;99846.59;;;31.25;55.54
70521;BME280;58442;52.716;23.560;2023-08-06T09:35:00;99853.48;;;31.30;55.42
70521;BME280;58442;52.716;23.560;2023-08-06T09:37:03;99845.08;;;31.30;55.15
70521;BME280;58442;52.716;23.560;2023-08-06T09:39:13;99853.98;;;31.34;54.86
70521;BME280;58442;52.716;23.560;2023-08-06T09:45:43;99841.97;;;31.50;54.15
70521;BME280;58442;52.716;23.560;2023-08-06T09:47:45;99837.86;;;31.57;54.01
70521;BME280;58442;52.716;23.560;2023-08-06T09:49:50;99842.44;;;31.66;53.74
70521;BME280;58442;52.716;23.560;2023-08-06T09:51:53;99840.85;;;31.76;53.44
70521;BME280;58442;52.716;23.560;2023-08-06T09:54:00;99831.15;;;31.82;53.39
70521;BME280;58442;52.716;23.560;2023-08-06T09:56:03;99819.88;;;31.88;53.18
70521;BME280;58442;52.716;23.560;2023-08-06T09:58:05;99830.83;;;31.97;52.99
70521;BME280;58442;52.716;23.560;2023-08-06T10:00:11;99813.17;;;32.02;52.67
70521;BME280;58442;52.716;23.560;2023-08-06T10:02:14;99814.17;;;32.05;52.64
70521;BME280;58442;52.716;23.560;2023-08-06T10:04:15;99801.13;;;32.07;52.42
70521;BME280;58442;52.716;23.560;2023-08-06T10:06:20;99810.34;;;32.08;52.15
70521;BME280;58442;52.716;23.560;2023-08-06T10:08:23;99809.28;;;32.11;52.22
70521;BME280;58442;52.716;23.560;2023-08-06T10:10:25;99791.87;;;32.18;52.10
70521;BME280;58442;52.716;23.560;2023-08-06T10:12:31;99796.47;;;32.21;51.99
70521;BME280;58442;52.716;23.560;2023-08-06T10:14:36;99795.67;;;32.26;51.86
70521;BME280;58442;52.716;23.560;2023-08-06T10:16:42;99797.73;;;32.26;51.82
70521;BME280;58442;52.716;23.560;2023-08-06T10:18:43;99794.12;;;32.25;51.87
70521;BME280;58442;52.716;23.560;2023-08-06T10:20:45;99786.94;;;32.30;51.61
70521;BME280;58442;52.716;23.560;2023-08-06T10:25:03;99782.30;;;32.38;51.23
70521;BME280;58442;52.716;23.560;2023-08-06T10:27:08;99765.63;;;32.46;50.99
70521;BME280;58442;52.716;23.560;2023-08-06T10:33:56;99768.09;;;32.60;50.79
70521;BME280;58442;52.716;23.560;2023-08-06T10:36:01;99762.54;;;32.49;50.75
70521;BME280;58442;52.716;23.560;2023-08-06T10:38:15;99748.52;;;32.44;50.63
70521;BME280;58442;52.716;23.560;2023-08-06T10:40:20;99744.45;;;32.39;50.61
70521;BME280;58442;52.716;23.560;2023-08-06T10:42:27;99737.55;;;32.40;50.53
70521;BME280;58442;52.716;23.560;2023-08-06T10:44:35;99760.30;;;32.42;50.40
70521;BME280;58442;52.716;23.560;2023-08-06T10:46:42;99733.49;;;32.35;50.17
70521;BME280;58442;52.716;23.560;2023-08-06T10:48:45;99718.91;;;32.37;50.03
70521;BME280;58442;52.716;23.560;2023-08-06T10:50:47;99734.22;;;32.42;49.65
70521;BME280;58442;52.716;23.560;2023-08-06T10:52:50;99737.71;;;32.53;49.70
70521;BME280;58442;52.716;23.560;2023-08-06T10:54:54;99736.09;;;32.63;49.42
70521;BME280;58442;52.716;23.560;2023-08-06T10:56:56;99726.77;;;32.74;49.11
70521;BME280;58442;52.716;23.560;2023-08-06T10:58:57;99725.40;;;32.86;48.88
70521;BME280;58442;52.716;23.560;2023-08-06T11:01:04;99717.06;;;33.00;48.74
70521;BME280;58442;52.716;23.560;2023-08-06T11:03:07;99715.68;;;32.87;48.90
70521;BME280;58442;52.716;23.560;2023-08-06T11:05:09;99715.93;;;32.84;48.71
70521;BME280;58442;52.716;23.560;2023-08-06T11:07:13;99714.41;;;32.83;48.62